createdAt,value
2022-10-17T00:00:40.025Z,8.51
2022-10-17T00:03:07.090Z,8.60
2022-10-17T00:05:33.814Z,8.60
2022-10-17T00:08:00.442Z,8.61
2022-10-17T00:10:27.032Z,8.63
2022-10-17T00:12:53.581Z,8.57
2022-10-17T00:15:21.138Z,8.56
2022-10-17T00:17:48.108Z,8.56
2022-10-17T00:20:15.762Z,8.56
2022-10-17T00:22:42.927Z,8.45
2022-10-17T00:25:10.294Z,8.37
2022-10-17T00:27:37.995Z,8.42
2022-10-17T00:30:06.437Z,8.34
2022-10-17T00:32:33.086Z,8.32
2022-10-17T00:34:59.622Z,8.30
2022-10-17T00:37:26.326Z,8.29
2022-10-17T00:39:54.081Z,8.19
2022-10-17T00:42:20.710Z,8.14
2022-10-17T00:44:47.698Z,8.04
2022-10-17T00:47:17.540Z,8.02
2022-10-17T00:49:44.411Z,7.79
2022-10-17T00:52:21.253Z,7.74
2022-10-17T00:55:02.397Z,7.51
2022-10-17T00:57:31.652Z,7.43
2022-10-17T01:00:00.745Z,7.20
2022-10-17T01:02:27.570Z,7.29
2022-10-17T01:04:59.367Z,7.31
2022-10-17T01:07:29.292Z,7.37
2022-10-17T01:09:58.391Z,7.34
2022-10-17T01:12:28.030Z,7.14
2022-10-17T01:15:22.743Z,7.06
2022-10-17T01:18:00.988Z,7.15
2022-10-17T01:20:27.431Z,7.22
2022-10-17T01:22:57.009Z,7.19
2022-10-17T01:26:13.047Z,7.18
2022-10-17T01:28:58.232Z,7.07
2022-10-17T01:31:34.183Z,7.09
2022-10-17T01:34:07.983Z,7.10
2022-10-17T01:36:47.640Z,6.96
2022-10-17T01:39:19.929Z,7.03
2022-10-17T01:42:07.078Z,6.87
2022-10-17T01:44:46.611Z,7.00
2022-10-17T01:47:17.537Z,7.16
2022-10-17T01:49:46.620Z,7.05
2022-10-17T01:52:18.693Z,6.97
2022-10-17T01:54:51.338Z,6.91
2022-10-17T01:57:29.532Z,6.86
2022-10-17T01:59:57.291Z,6.66
2022-10-17T02:02:26.632Z,6.76
2022-10-17T02:04:55.623Z,6.74
2022-10-17T02:07:22.498Z,6.76
2022-10-17T02:09:49.004Z,6.75
2022-10-17T02:12:32.243Z,6.73
2022-10-17T02:15:19.916Z,6.65
2022-10-17T02:18:15.840Z,6.66
2022-10-17T02:21:03.095Z,6.66
2022-10-17T02:23:44.312Z,6.63
2022-10-17T02:26:16.993Z,6.59
2022-10-17T02:28:52.235Z,6.66
2022-10-17T02:31:24.143Z,6.67
2022-10-17T02:34:04.961Z,6.61
2022-10-17T02:36:37.743Z,6.59
2022-10-17T02:39:06.572Z,6.46
2022-10-17T02:41:34.577Z,6.32
2022-10-17T02:44:03.753Z,6.31
2022-10-17T02:46:32.367Z,6.25
2022-10-17T02:49:10.485Z,6.15
2022-10-17T02:51:45.334Z,6.26
2022-10-17T02:54:22.282Z,6.24
2022-10-17T02:57:12.601Z,6.30
2022-10-17T02:59:41.933Z,6.23
2022-10-17T03:02:08.582Z,6.29
2022-10-17T03:04:35.092Z,6.26
2022-10-17T03:07:01.703Z,6.26
2022-10-17T03:09:28.265Z,6.31
2022-10-17T03:11:55.018Z,6.34
2022-10-17T03:14:21.612Z,6.39
2022-10-17T03:16:48.145Z,6.36
2022-10-17T03:19:14.665Z,6.31
2022-10-17T03:21:41.410Z,6.23
2022-10-17T03:24:07.998Z,5.92
2022-10-17T03:26:34.747Z,5.94
2022-10-17T03:29:01.384Z,5.87
2022-10-17T03:31:27.950Z,5.94
2022-10-17T03:33:54.560Z,6.00
2022-10-17T03:36:21.212Z,5.97
2022-10-17T03:38:48.339Z,6.02
2022-10-17T03:41:15.023Z,6.10
2022-10-17T03:43:41.566Z,6.01
2022-10-17T03:46:08.404Z,5.83
2022-10-17T03:48:35.123Z,5.71
2022-10-17T03:51:03.979Z,5.66
2022-10-17T03:53:30.705Z,5.69
2022-10-17T03:55:57.863Z,5.77
2022-10-17T03:58:24.445Z,5.79
2022-10-17T04:00:51.095Z,5.84
2022-10-17T04:03:17.687Z,5.95
2022-10-17T04:05:44.392Z,5.99
2022-10-17T04:08:10.933Z,5.90
2022-10-17T04:10:37.623Z,5.85
2022-10-17T04:13:04.643Z,5.81
2022-10-17T04:15:31.153Z,5.78
2022-10-17T04:17:57.669Z,5.81
2022-10-17T04:20:24.301Z,5.81
2022-10-17T04:22:50.841Z,5.87
2022-10-17T04:25:17.358Z,5.86
2022-10-17T04:27:43.934Z,5.88
2022-10-17T04:30:10.979Z,5.79
2022-10-17T04:32:39.082Z,5.72
2022-10-17T04:35:06.162Z,5.59
2022-10-17T04:37:32.714Z,5.58
2022-10-17T04:39:59.418Z,5.59
2022-10-17T04:42:26.087Z,5.46
2022-10-17T04:44:52.702Z,5.47
2022-10-17T04:47:19.214Z,5.34
2022-10-17T04:49:45.752Z,5.37
2022-10-17T04:52:12.311Z,5.33
2022-10-17T04:54:38.817Z,5.37
2022-10-17T04:57:05.355Z,5.47
2022-10-17T04:59:31.910Z,5.53
2022-10-17T05:01:58.430Z,5.56
2022-10-17T05:04:25.667Z,5.57
2022-10-17T05:06:52.477Z,5.47
2022-10-17T05:09:18.985Z,5.23
2022-10-17T05:11:45.576Z,5.01
2022-10-17T05:14:12.154Z,5.07
2022-10-17T05:16:38.776Z,5.10
2022-10-17T05:19:05.351Z,5.05
2022-10-17T05:24:07.861Z,5.12
2022-10-17T05:26:34.453Z,5.25
2022-10-17T05:29:05.448Z,5.28
2022-10-17T05:31:32.211Z,5.44
2022-10-17T05:34:02.771Z,5.48
2022-10-17T05:36:29.567Z,5.52
2022-10-17T05:38:56.306Z,5.52
2022-10-17T05:41:23.002Z,5.61
2022-10-17T05:43:50.351Z,5.77
2022-10-17T05:46:16.879Z,5.97
2022-10-17T05:48:43.427Z,6.13
2022-10-17T05:51:10.311Z,6.30
2022-10-17T05:53:39.450Z,6.64
2022-10-17T05:56:08.341Z,6.92
2022-10-17T05:58:53.290Z,7.27
2022-10-17T06:01:21.652Z,7.86
2022-10-17T06:03:48.306Z,8.30
2022-10-17T06:06:15.808Z,8.74
2022-10-17T06:08:42.724Z,8.73
2022-10-17T06:11:10.502Z,8.73
2022-10-17T06:13:38.539Z,8.72
2022-10-17T06:16:06.101Z,8.77
2022-10-17T06:18:33.161Z,9.14
2022-10-17T06:21:09.010Z,9.35
2022-10-17T06:23:35.630Z,9.54
2022-10-17T06:26:04.443Z,9.86
2022-10-17T06:28:31.452Z,10.13
2022-10-17T06:30:58.306Z,10.05
2022-10-17T06:33:25.303Z,10.29
2022-10-17T06:35:55.832Z,10.43
2022-10-17T06:38:23.307Z,10.29
2022-10-17T06:40:49.808Z,10.38
2022-10-17T06:43:16.328Z,10.93
2022-10-17T06:45:43.021Z,11.39
2022-10-17T06:48:09.680Z,11.42
2022-10-17T06:50:36.281Z,11.69
2022-10-17T06:53:03.178Z,11.59
2022-10-17T06:55:31.394Z,11.76
2022-10-17T06:57:58.306Z,11.56
2022-10-17T07:00:26.721Z,11.94
2022-10-17T07:02:53.237Z,12.25
2022-10-17T07:05:19.774Z,12.20
2022-10-17T07:07:48.489Z,12.38
2022-10-17T07:10:18.520Z,12.20
2022-10-17T07:12:45.878Z,12.38
2022-10-17T07:15:12.977Z,12.56
2022-10-17T07:17:39.551Z,13.06
2022-10-17T07:20:06.638Z,13.28
2022-10-17T07:22:33.175Z,13.51
2022-10-17T07:24:59.752Z,13.92
2022-10-17T07:27:26.516Z,14.52
2022-10-17T07:29:53.122Z,14.84
2022-10-17T07:32:19.645Z,15.32
2022-10-17T07:34:46.278Z,15.61
2022-10-17T07:37:12.842Z,15.86
2022-10-17T07:39:40.132Z,15.55
2022-10-17T07:42:07.792Z,15.76
2022-10-17T07:44:35.579Z,16.07
2022-10-17T07:47:02.303Z,16.27
2022-10-17T07:49:29.368Z,16.41
2022-10-17T07:51:55.971Z,16.36
2022-10-17T07:54:22.810Z,16.47
2022-10-17T07:56:50.676Z,16.80
2022-10-17T07:59:18.947Z,17.09
2022-10-17T08:01:45.552Z,17.63
2022-10-17T08:04:12.122Z,17.39
2022-10-17T08:06:38.777Z,17.73
2022-10-17T08:09:05.420Z,18.28
2022-10-17T08:11:31.939Z,18.75
2022-10-17T08:13:58.504Z,19.12
2022-10-17T08:16:25.019Z,19.16
2022-10-17T08:18:51.634Z,19.16
2022-10-17T08:21:18.207Z,18.93
2022-10-17T08:23:44.731Z,19.35
2022-10-17T08:26:13.494Z,19.69
2022-10-17T08:28:40.955Z,20.57
2022-10-17T08:31:13.124Z,21.63
2022-10-17T08:33:40.110Z,21.73
2022-10-17T08:36:08.328Z,22.76
2022-10-17T08:38:37.624Z,22.73
2022-10-17T08:41:13.233Z,23.25
2022-10-17T08:43:42.435Z,23.01
2022-10-17T08:46:09.898Z,23.95
2022-10-17T08:48:45.606Z,24.27
2022-10-17T08:51:18.230Z,23.94
2022-10-17T08:54:01.491Z,24.96
2022-10-17T08:56:55.586Z,25.85
2022-10-17T08:59:30.424Z,25.37
2022-10-17T09:02:01.333Z,26.14
2022-10-17T09:04:42.469Z,26.14
2022-10-17T09:07:16.395Z,26.03
2022-10-17T09:10:00.919Z,25.19
2022-10-17T09:12:46.135Z,23.65
2022-10-17T09:15:22.667Z,23.87
2022-10-17T09:17:53.200Z,23.55
2022-10-17T09:20:23.993Z,22.86
2022-10-17T09:23:05.040Z,22.48
2022-10-17T09:25:41.781Z,21.85
2022-10-17T09:28:17.323Z,21.22
2022-10-17T09:30:45.939Z,20.43
2022-10-17T09:33:35.231Z,20.24
2022-10-17T09:36:25.877Z,20.02
2022-10-17T09:38:58.303Z,19.78
2022-10-17T09:41:50.774Z,19.87
2022-10-17T09:44:35.903Z,19.79
2022-10-17T09:47:22.669Z,19.80
2022-10-17T09:49:50.345Z,19.68
2022-10-17T09:52:22.785Z,19.68
2022-10-17T09:55:34.040Z,19.64
2022-10-17T09:58:06.143Z,19.63
2022-10-17T10:00:45.094Z,19.59
2022-10-17T10:03:22.230Z,19.71
2022-10-17T10:06:12.628Z,19.92
2022-10-17T10:08:58.668Z,20.06
2022-10-17T10:11:48.847Z,20.21
2022-10-17T10:14:35.818Z,20.07
2022-10-17T10:17:03.742Z,20.01
2022-10-17T10:19:32.741Z,20.20
2022-10-17T10:22:02.488Z,20.27
2022-10-17T10:24:31.185Z,20.44
2022-10-17T10:27:01.427Z,20.57
2022-10-17T10:29:32.753Z,20.74
2022-10-17T10:32:10.814Z,20.91
2022-10-17T10:34:44.357Z,21.10
2022-10-17T10:37:21.517Z,21.08
2022-10-17T10:39:49.902Z,21.21
2022-10-17T10:42:27.417Z,21.28
2022-10-17T10:44:57.667Z,21.32
2022-10-17T10:47:29.533Z,21.59
2022-10-17T10:50:21.273Z,21.40
2022-10-17T10:52:57.901Z,21.46
2022-10-17T10:55:32.340Z,21.70
2022-10-17T10:58:08.129Z,21.94
2022-10-17T11:00:37.982Z,22.03
2022-10-17T11:03:15.912Z,22.18
2022-10-17T11:05:49.663Z,22.32
2022-10-17T11:08:37.761Z,22.31
2022-10-17T11:11:18.101Z,22.43
2022-10-17T11:14:05.396Z,22.40
2022-10-17T11:16:39.974Z,22.40
2022-10-17T11:19:09.310Z,22.17
2022-10-17T11:22:09.719Z,22.06
2022-10-17T11:24:46.476Z,22.07
2022-10-17T11:27:13.035Z,22.25
2022-10-17T11:29:41.615Z,22.36
2022-10-17T11:32:34.575Z,22.61
2022-10-17T11:35:25.427Z,22.72
2022-10-17T11:38:15.444Z,22.64
2022-10-17T11:40:48.501Z,22.55
2022-10-17T11:43:20.332Z,22.68
2022-10-17T11:45:51.986Z,22.61
2022-10-17T11:48:29.776Z,22.85
2022-10-17T11:54:26.764Z,22.99
2022-10-17T11:57:24.406Z,22.82
2022-10-17T11:59:57.130Z,22.91
2022-10-17T12:02:49.460Z,22.99
2022-10-17T12:05:22.530Z,23.08
2022-10-17T12:07:57.826Z,23.03
2022-10-17T12:10:45.322Z,22.95
2022-10-17T12:13:33.738Z,23.00
2022-10-17T12:16:18.661Z,23.02
2022-10-17T12:18:49.675Z,23.09
2022-10-17T12:21:16.533Z,23.16
2022-10-17T12:23:53.109Z,23.03
2022-10-17T12:26:28.628Z,23.13
2022-10-17T12:28:56.751Z,23.29
2022-10-17T12:31:28.518Z,23.18
2022-10-17T12:34:02.098Z,23.05
2022-10-17T12:36:28.700Z,23.02
2022-10-17T12:39:30.248Z,23.01
2022-10-17T12:41:56.827Z,23.05
2022-10-17T12:44:26.983Z,22.92
2022-10-17T12:47:05.915Z,22.93
2022-10-17T12:49:48.161Z,22.89
2022-10-17T12:52:31.115Z,22.81
2022-10-17T12:55:12.551Z,22.85
2022-10-17T12:58:03.402Z,22.71
2022-10-17T13:00:59.426Z,22.63
2022-10-17T13:03:34.880Z,22.76
2022-10-17T13:06:05.359Z,22.77
2022-10-17T13:08:33.183Z,22.73
2022-10-17T13:11:01.222Z,22.76
2022-10-17T13:13:42.782Z,22.73
2022-10-17T13:16:09.630Z,22.69
2022-10-17T13:18:36.238Z,22.69
2022-10-17T13:21:14.312Z,22.66
2022-10-17T13:23:40.913Z,22.55
2022-10-17T13:26:10.511Z,22.59
2022-10-17T13:28:39.388Z,22.62
2022-10-17T13:31:07.036Z,22.63
2022-10-17T13:33:35.859Z,22.60
2022-10-17T13:36:06.723Z,22.63
2022-10-17T13:38:36.769Z,22.61
2022-10-17T13:41:34.904Z,22.61
2022-10-17T13:44:03.375Z,22.58
2022-10-17T13:46:37.932Z,22.48
2022-10-17T13:49:42.125Z,22.55
2022-10-17T13:52:21.296Z,22.59
2022-10-17T13:54:53.869Z,22.48
2022-10-17T13:57:31.924Z,22.22
2022-10-17T14:00:11.388Z,22.14
2022-10-17T14:02:38.422Z,22.19
2022-10-17T14:05:17.822Z,22.20
2022-10-17T14:08:09.880Z,22.22
2022-10-17T14:10:38.831Z,22.17
2022-10-17T14:13:08.294Z,22.24
2022-10-17T14:15:37.519Z,22.18
2022-10-17T14:18:08.185Z,22.11
2022-10-17T14:21:28.763Z,22.13
2022-10-17T14:23:44.412Z,21.94
2022-10-17T14:26:13.991Z,21.98
2022-10-17T14:28:43.611Z,21.91
2022-10-17T14:31:22.187Z,21.79
2022-10-17T14:33:51.292Z,21.66
2022-10-17T14:36:19.371Z,21.58
2022-10-17T14:38:52.235Z,21.50
2022-10-17T14:41:47.688Z,21.33
2022-10-17T14:44:30.753Z,21.18
2022-10-17T14:47:30.895Z,20.94
2022-10-17T14:50:07.248Z,20.85
2022-10-17T14:52:35.048Z,20.67
2022-10-17T14:55:20.957Z,20.51
2022-10-17T14:57:47.504Z,20.52
2022-10-17T15:00:16.361Z,20.43
2022-10-17T15:02:43.611Z,20.42
2022-10-17T15:05:13.272Z,20.24
2022-10-17T15:07:41.082Z,20.16
2022-10-17T15:10:21.241Z,20.08
2022-10-17T15:12:56.219Z,19.96
2022-10-17T15:15:25.835Z,19.87
2022-10-17T15:17:52.387Z,19.76
2022-10-17T15:20:20.095Z,19.68
2022-10-17T15:22:46.722Z,19.70
2022-10-17T15:25:13.259Z,19.74
2022-10-17T15:27:39.793Z,19.69
2022-10-17T15:30:21.822Z,19.58
2022-10-17T15:32:49.391Z,19.48
2022-10-17T15:35:16.106Z,19.49
2022-10-17T15:37:43.285Z,19.37
2022-10-17T15:40:20.654Z,19.23
2022-10-17T15:42:47.245Z,19.07
2022-10-17T15:45:16.806Z,19.07
2022-10-17T15:47:49.600Z,19.05
2022-10-17T15:50:17.750Z,18.93
2022-10-17T15:52:47.013Z,18.91
2022-10-17T16:10:41.442Z,18.90
2022-10-17T16:13:17.369Z,18.83
2022-10-17T16:15:44.121Z,18.74
2022-10-17T16:18:10.807Z,18.66
2022-10-17T16:20:38.475Z,18.56
2022-10-17T16:23:05.571Z,18.48
2022-10-17T16:25:32.740Z,18.40
2022-10-17T16:28:00.200Z,18.27
2022-10-17T16:30:29.549Z,18.16
2022-10-17T16:32:56.991Z,18.15
2022-10-17T16:35:30.644Z,18.16
2022-10-17T16:37:59.997Z,18.03
2022-10-17T16:40:26.585Z,17.91
2022-10-17T16:42:53.165Z,17.98
2022-10-17T16:45:21.965Z,17.91
2022-10-17T16:47:49.232Z,17.73
2022-10-17T16:50:16.107Z,17.58
2022-10-17T16:52:43.639Z,17.49
2022-10-17T16:55:10.691Z,17.25
2022-10-17T16:57:37.273Z,17.01
2022-10-17T17:00:06.081Z,16.81
2022-10-17T17:02:32.836Z,16.54
2022-10-17T17:04:59.706Z,16.32
2022-10-17T17:07:29.512Z,16.15
2022-10-17T17:09:56.501Z,16.08
2022-10-17T17:12:23.580Z,16.01
2022-10-17T17:14:50.277Z,15.68
2022-10-17T17:17:30.133Z,15.48
2022-10-17T17:20:04.110Z,15.27
2022-10-17T17:22:30.627Z,14.97
2022-10-17T17:24:57.154Z,14.89
2022-10-17T17:27:25.448Z,14.84
2022-10-17T17:29:52.008Z,14.84
2022-10-17T17:32:18.719Z,14.78
2022-10-17T17:34:45.380Z,14.75
2022-10-17T17:37:11.886Z,14.72
2022-10-17T17:39:38.476Z,14.58
2022-10-17T17:42:05.075Z,14.53
2022-10-17T17:44:31.988Z,14.51
2022-10-17T17:46:58.590Z,14.42
2022-10-17T17:49:25.232Z,14.36
2022-10-17T17:51:51.821Z,14.12
2022-10-17T17:54:18.450Z,14.04
2022-10-17T17:56:45.553Z,14.00
2022-10-17T17:59:12.822Z,13.80
2022-10-17T18:01:39.601Z,13.72
2022-10-17T18:04:08.925Z,13.64
2022-10-17T18:06:37.029Z,13.35
2022-10-17T18:09:04.683Z,13.32
2022-10-17T18:11:31.425Z,13.27
2022-10-17T18:14:00.359Z,13.16
2022-10-17T18:16:28.112Z,12.96
2022-10-17T18:18:54.774Z,12.92
2022-10-17T18:21:21.872Z,12.81
2022-10-17T18:23:49.473Z,12.68
2022-10-17T18:26:16.686Z,12.53
2022-10-17T18:28:43.862Z,12.67
2022-10-17T18:31:18.934Z,12.70
2022-10-17T18:33:46.474Z,12.76
2022-10-17T18:36:15.079Z,12.68
2022-10-17T18:38:42.722Z,12.47
2022-10-17T18:41:15.417Z,12.44
2022-10-17T18:43:44.587Z,12.36
2022-10-17T18:46:16.666Z,12.39
2022-10-17T18:48:44.928Z,12.30
2022-10-17T18:51:13.127Z,12.26
2022-10-17T18:53:50.752Z,12.13
2022-10-17T18:56:18.660Z,12.04
2022-10-17T18:58:45.706Z,12.00
2022-10-17T19:01:19.976Z,12.10
2022-10-17T19:03:49.217Z,12.11
2022-10-17T19:06:18.280Z,12.03
2022-10-17T19:08:45.733Z,11.89
2022-10-17T19:11:16.418Z,11.91
2022-10-17T19:16:21.562Z,11.85
2022-10-17T19:19:18.406Z,11.83
2022-10-17T19:21:44.812Z,11.77
2022-10-17T19:24:15.294Z,11.67
2022-10-17T19:26:43.264Z,11.51
2022-10-17T19:29:13.254Z,11.40
2022-10-17T19:31:40.179Z,11.37
2022-10-17T19:34:07.144Z,11.14
2022-10-17T19:36:35.395Z,11.10
2022-10-17T19:39:05.126Z,11.07
2022-10-17T19:41:32.344Z,10.99
2022-10-17T19:44:00.381Z,10.97
2022-10-17T19:46:28.433Z,11.04
2022-10-17T19:48:55.505Z,11.04
2022-10-17T19:51:26.746Z,10.99
2022-10-17T19:53:55.205Z,10.98
2022-10-17T19:56:23.241Z,10.83
2022-10-17T19:58:51.206Z,10.92
2022-10-17T20:01:23.020Z,10.90
2022-10-17T20:03:50.564Z,10.89
2022-10-17T20:06:18.545Z,10.75
2022-10-17T20:08:45.425Z,10.68
2022-10-17T20:11:14.867Z,10.78
2022-10-17T20:13:41.841Z,10.68
2022-10-17T20:16:11.697Z,10.67
2022-10-17T20:18:40.571Z,10.60
2022-10-17T20:21:10.383Z,10.64
2022-10-17T20:23:37.234Z,10.70
2022-10-17T20:26:08.081Z,10.58
2022-10-17T20:28:46.154Z,10.56
2022-10-17T20:31:13.490Z,10.39
2022-10-17T20:33:41.523Z,10.45
2022-10-17T20:36:10.240Z,10.33
2022-10-17T20:38:36.885Z,10.27
2022-10-17T20:41:05.521Z,10.15
2022-10-17T20:43:32.525Z,10.03
2022-10-17T20:46:09.636Z,10.06
2022-10-17T20:48:45.856Z,10.03
2022-10-17T20:51:12.509Z,10.01
2022-10-17T20:53:39.054Z,9.91
2022-10-17T20:56:08.765Z,9.88
2022-10-17T20:58:35.814Z,9.71
2022-10-17T21:01:10.208Z,9.70
2022-10-17T21:03:43.830Z,9.58
2022-10-17T21:06:13.656Z,9.66
2022-10-17T21:08:40.371Z,9.63
2022-10-17T21:11:14.408Z,9.41
2022-10-17T21:13:41.686Z,9.29
2022-10-17T21:16:13.595Z,9.25
2022-10-17T21:18:40.973Z,9.28
2022-10-17T21:21:11.965Z,9.29
2022-10-17T21:23:39.627Z,9.25
2022-10-17T21:26:08.975Z,9.21
2022-10-17T21:28:37.138Z,9.10
2022-10-17T21:31:29.849Z,9.13
2022-10-17T21:33:58.948Z,9.22
2022-10-17T21:36:27.220Z,9.23
2022-10-17T21:38:56.950Z,9.13
2022-10-17T21:41:26.068Z,8.94
2022-10-17T21:43:55.235Z,8.91
2022-10-17T21:46:22.471Z,8.89
2022-10-17T21:48:51.666Z,8.71
2022-10-17T21:51:20.785Z,8.66
2022-10-17T21:53:48.121Z,8.74
2022-10-17T21:56:19.793Z,8.68
2022-10-17T21:58:46.814Z,8.56
2022-10-17T22:01:17.291Z,8.62
2022-10-17T22:03:46.971Z,8.47
2022-10-17T22:09:09.032Z,8.35
2022-10-17T22:11:36.105Z,8.29
2022-10-17T22:14:06.270Z,8.26
2022-10-17T22:16:33.831Z,8.19
2022-10-17T22:19:05.868Z,8.06
2022-10-17T22:21:35.281Z,8.11
2022-10-17T22:24:05.346Z,8.10
2022-10-17T22:26:33.197Z,8.11
2022-10-17T22:28:59.883Z,8.27
2022-10-17T22:31:26.702Z,8.21
2022-10-17T22:33:53.676Z,8.18
2022-10-17T22:36:20.307Z,8.09
2022-10-17T22:38:46.894Z,8.06
2022-10-17T22:41:13.557Z,8.09
2022-10-17T22:43:40.106Z,8.05
2022-10-17T22:46:07.476Z,8.11
2022-10-17T22:48:34.409Z,7.98
2022-10-17T22:51:01.600Z,7.70
2022-10-17T22:53:29.665Z,7.48
2022-10-17T22:56:09.275Z,7.26
2022-10-17T22:58:36.365Z,7.37
2022-10-17T23:01:05.934Z,7.40
2022-10-17T23:03:33.443Z,7.40
2022-10-17T23:06:00.662Z,7.43
2022-10-17T23:08:27.885Z,7.50
2022-10-17T23:10:54.858Z,7.52
2022-10-17T23:13:21.987Z,7.55
2022-10-17T23:15:53.623Z,7.63
2022-10-17T23:18:21.283Z,7.68
2022-10-17T23:20:48.258Z,7.64
2022-10-17T23:23:15.591Z,7.59
2022-10-17T23:25:42.408Z,7.75
2022-10-17T23:28:09.356Z,7.56
2022-10-17T23:30:36.783Z,7.45
2022-10-17T23:33:03.815Z,7.37
2022-10-17T23:35:30.624Z,7.32
2022-10-17T23:37:57.262Z,7.32
2022-10-17T23:40:23.967Z,7.20
2022-10-17T23:42:50.519Z,6.92
2022-10-17T23:45:17.115Z,6.84
2022-10-17T23:47:43.661Z,6.88
2022-10-17T23:50:10.290Z,7.03
2022-10-17T23:52:36.827Z,7.04
2022-10-17T23:55:04.116Z,7.05
2022-10-17T23:57:30.865Z,7.12
2022-10-17T23:59:57.638Z,7.06
